createdAt,value
2017-10-16T00:00:26.388Z,996.44
2017-10-16T00:01:33.143Z,996.42
2017-10-16T00:02:39.898Z,996.43
2017-10-16T00:03:46.622Z,996.48
2017-10-16T00:04:53.441Z,996.45
2017-10-16T00:06:00.254Z,996.49
2017-10-16T00:07:07.003Z,996.46
2017-10-16T00:08:13.757Z,996.41
2017-10-16T00:09:20.631Z,996.47
2017-10-16T00:10:27.390Z,996.44
2017-10-16T00:11:34.162Z,996.40
2017-10-16T00:12:40.938Z,996.40
2017-10-16T00:13:47.657Z,996.42
2017-10-16T00:14:54.431Z,996.32
2017-10-16T00:16:01.163Z,996.43
2017-10-16T00:17:07.897Z,996.40
2017-10-16T00:18:14.632Z,996.39
2017-10-16T00:19:21.403Z,996.39
2017-10-16T00:20:28.177Z,996.38
2017-10-16T00:21:35.127Z,996.32
2017-10-16T00:22:41.853Z,996.35
2017-10-16T00:23:48.597Z,996.34
2017-10-16T00:24:55.353Z,996.30
2017-10-16T00:26:02.089Z,996.32
2017-10-16T00:27:08.821Z,996.39
2017-10-16T00:28:15.589Z,996.37
2017-10-16T00:29:22.298Z,996.40
2017-10-16T00:30:29.132Z,996.37
2017-10-16T00:31:36.051Z,996.34
2017-10-16T00:32:42.858Z,996.42
2017-10-16T00:33:49.654Z,996.32
2017-10-16T00:34:56.454Z,996.37
2017-10-16T00:36:03.240Z,996.38
2017-10-16T00:37:09.998Z,996.42
2017-10-16T00:38:16.806Z,996.54
2017-10-16T00:39:23.534Z,996.43
2017-10-16T00:40:30.382Z,996.41
2017-10-16T00:41:37.110Z,996.45
2017-10-16T00:42:44.217Z,996.43
2017-10-16T00:43:50.982Z,996.48
2017-10-16T00:44:57.829Z,996.47
2017-10-16T00:46:04.680Z,996.51
2017-10-16T00:47:11.545Z,996.45
2017-10-16T00:48:18.325Z,996.41
2017-10-16T00:49:25.090Z,996.36
2017-10-16T00:50:31.902Z,996.41
2017-10-16T00:51:38.649Z,996.40
2017-10-16T00:52:45.397Z,996.48
2017-10-16T00:53:52.198Z,996.41
2017-10-16T00:54:58.913Z,996.39
2017-10-16T00:56:05.685Z,996.41
2017-10-16T00:57:12.654Z,996.40
2017-10-16T00:58:19.417Z,996.52
2017-10-16T00:59:26.274Z,996.50
2017-10-16T01:00:33.148Z,996.54
2017-10-16T01:01:40.005Z,996.56
2017-10-16T01:02:46.782Z,996.46
2017-10-16T01:03:53.554Z,996.45
2017-10-16T01:05:00.344Z,996.51
2017-10-16T01:06:07.110Z,996.47
2017-10-16T01:07:13.913Z,996.48
2017-10-16T01:08:20.829Z,996.50
2017-10-16T01:09:27.573Z,996.49
2017-10-16T01:10:34.474Z,996.60
2017-10-16T01:11:41.241Z,996.52
2017-10-16T01:12:48.077Z,996.46
2017-10-16T01:13:54.854Z,996.52
2017-10-16T01:15:01.643Z,996.45
2017-10-16T01:16:08.477Z,996.34
2017-10-16T01:17:15.286Z,996.43
2017-10-16T01:18:22.069Z,996.42
2017-10-16T01:19:28.835Z,996.33
2017-10-16T01:20:35.584Z,996.44
2017-10-16T01:21:42.383Z,996.45
2017-10-16T01:22:49.218Z,996.48
2017-10-16T01:23:55.935Z,996.40
2017-10-16T01:25:02.694Z,996.42
2017-10-16T01:26:09.494Z,996.43
2017-10-16T01:27:16.271Z,996.40
2017-10-16T01:28:23.041Z,996.44
2017-10-16T01:29:29.886Z,996.35
2017-10-16T01:30:36.689Z,996.42
2017-10-16T01:31:43.537Z,996.39
2017-10-16T01:32:50.405Z,996.33
2017-10-16T01:33:57.278Z,996.41
2017-10-16T01:35:04.126Z,996.38
2017-10-16T01:36:10.987Z,996.39
2017-10-16T01:37:17.854Z,996.36
2017-10-16T01:38:24.832Z,996.34
2017-10-16T01:39:31.705Z,996.21
2017-10-16T01:40:38.541Z,996.25
2017-10-16T01:41:45.377Z,996.17
2017-10-16T01:42:52.338Z,996.13
2017-10-16T01:43:59.090Z,996.11
2017-10-16T01:45:05.846Z,996.23
2017-10-16T01:46:12.718Z,996.22
2017-10-16T01:47:19.562Z,996.17
2017-10-16T01:48:26.407Z,996.15
2017-10-16T01:49:33.233Z,996.12
2017-10-16T01:50:40.008Z,996.08
2017-10-16T01:51:46.858Z,996.07
2017-10-16T01:52:53.745Z,996.06
2017-10-16T01:54:00.642Z,996.12
2017-10-16T01:55:07.445Z,996.10
2017-10-16T01:56:14.218Z,996.16
2017-10-16T01:57:21.062Z,996.16
2017-10-16T01:58:27.933Z,996.12
2017-10-16T01:59:34.806Z,996.08
2017-10-16T02:00:41.682Z,996.20
2017-10-16T02:01:48.546Z,996.16
2017-10-16T02:02:55.401Z,996.18
2017-10-16T02:04:02.134Z,996.12
2017-10-16T02:05:08.886Z,996.22
2017-10-16T02:06:15.629Z,996.11
2017-10-16T02:07:22.378Z,996.20
2017-10-16T02:08:29.113Z,996.19
2017-10-16T02:09:35.910Z,996.18
2017-10-16T02:10:42.702Z,996.17
2017-10-16T02:11:49.426Z,996.15
2017-10-16T02:12:56.209Z,996.17
2017-10-16T02:14:02.941Z,996.18
2017-10-16T02:15:09.682Z,996.17
2017-10-16T02:16:16.437Z,996.15
2017-10-16T02:17:23.578Z,996.09
2017-10-16T02:18:29.834Z,996.03
2017-10-16T02:19:36.665Z,995.99
2017-10-16T02:20:43.425Z,996.01
2017-10-16T02:21:50.170Z,996.05
2017-10-16T02:22:57.002Z,995.98
2017-10-16T02:24:03.726Z,996.04
2017-10-16T02:25:10.555Z,996.05
2017-10-16T02:26:17.487Z,996.11
2017-10-16T02:27:24.273Z,996.07
2017-10-16T02:28:31.161Z,996.02
2017-10-16T02:29:37.893Z,996.02
2017-10-16T02:30:44.615Z,996.07
2017-10-16T02:31:51.431Z,996.09
2017-10-16T02:32:58.217Z,996.07
2017-10-16T02:34:04.994Z,996.04
2017-10-16T02:35:11.787Z,996.04
2017-10-16T02:36:18.603Z,996.03
2017-10-16T02:37:25.346Z,996.04
2017-10-16T02:38:32.170Z,996.02
2017-10-16T02:39:38.918Z,996.03
2017-10-16T02:40:45.663Z,996.03
2017-10-16T02:41:52.390Z,996.04
2017-10-16T02:42:59.160Z,995.95
2017-10-16T02:44:05.889Z,995.97
2017-10-16T02:45:12.630Z,996.01
2017-10-16T02:46:19.452Z,995.97
2017-10-16T02:47:26.177Z,995.95
2017-10-16T02:48:32.946Z,995.91
2017-10-16T02:49:39.799Z,995.92
2017-10-16T02:50:46.530Z,995.87
2017-10-16T02:51:53.322Z,995.93
2017-10-16T02:53:00.245Z,995.90
2017-10-16T02:54:06.983Z,995.90
2017-10-16T02:55:13.737Z,995.95
2017-10-16T02:56:20.527Z,995.94
2017-10-16T02:57:27.270Z,995.90
2017-10-16T02:58:34.043Z,995.94
2017-10-16T02:59:40.770Z,995.92
2017-10-16T03:00:47.489Z,995.84
2017-10-16T03:01:54.226Z,995.85
2017-10-16T03:03:00.990Z,995.84
2017-10-16T03:04:07.867Z,995.82
2017-10-16T03:05:14.630Z,995.81
2017-10-16T03:06:21.396Z,995.82
2017-10-16T03:07:28.427Z,995.89
2017-10-16T03:08:35.186Z,995.86
2017-10-16T03:09:41.962Z,995.86
2017-10-16T03:10:48.828Z,995.88
2017-10-16T03:11:55.637Z,995.86
2017-10-16T03:13:02.397Z,995.86
2017-10-16T03:14:09.159Z,995.91
2017-10-16T03:15:15.986Z,995.96
2017-10-16T03:16:22.759Z,995.96
2017-10-16T03:17:29.582Z,996.03
2017-10-16T03:18:36.331Z,996.00
2017-10-16T03:19:43.110Z,996.02
2017-10-16T03:20:49.882Z,996.04
2017-10-16T03:21:56.644Z,996.03
2017-10-16T03:23:03.397Z,996.04
2017-10-16T03:24:10.181Z,996.03
2017-10-16T03:25:17.014Z,996.08
2017-10-16T03:26:23.752Z,996.06
2017-10-16T03:27:30.509Z,996.06
2017-10-16T03:28:37.262Z,996.01
2017-10-16T03:29:44.014Z,996.02
2017-10-16T03:30:50.834Z,996.04
2017-10-16T03:31:57.602Z,996.03
2017-10-16T03:33:04.368Z,995.99
2017-10-16T03:34:11.266Z,995.98
2017-10-16T03:35:18.090Z,995.97
2017-10-16T03:36:25.205Z,995.98
2017-10-16T03:37:31.965Z,995.98
2017-10-16T03:38:38.734Z,996.03
2017-10-16T03:39:45.581Z,996.01
2017-10-16T03:40:52.374Z,996.00
2017-10-16T03:41:59.127Z,996.00
2017-10-16T03:43:05.909Z,996.06
2017-10-16T03:44:12.936Z,995.99
2017-10-16T03:45:19.678Z,995.98
2017-10-16T03:46:26.433Z,996.02
2017-10-16T03:47:33.206Z,995.98
2017-10-16T03:48:40.017Z,995.95
2017-10-16T03:49:46.832Z,995.99
2017-10-16T03:50:53.699Z,995.89
2017-10-16T03:52:00.465Z,995.95
2017-10-16T03:53:07.230Z,995.95
2017-10-16T03:54:14.091Z,995.97
2017-10-16T03:55:20.877Z,995.98
2017-10-16T03:56:27.677Z,995.87
2017-10-16T03:57:34.423Z,995.91
2017-10-16T03:58:41.202Z,995.91
2017-10-16T03:59:47.961Z,995.93
2017-10-16T04:00:54.809Z,995.92
2017-10-16T04:02:01.902Z,995.95
2017-10-16T04:03:08.701Z,995.94
2017-10-16T04:04:15.483Z,995.89
2017-10-16T04:05:22.268Z,995.86
2017-10-16T04:06:29.086Z,995.94
2017-10-16T04:07:35.855Z,995.94
2017-10-16T04:08:42.605Z,996.06
2017-10-16T04:09:49.370Z,996.04
2017-10-16T04:10:56.140Z,996.02
2017-10-16T04:12:02.925Z,996.00
2017-10-16T04:13:09.698Z,996.06
2017-10-16T04:14:16.469Z,996.05
2017-10-16T04:15:23.313Z,996.04
2017-10-16T04:16:30.062Z,996.03
2017-10-16T04:17:36.845Z,995.97
2017-10-16T04:18:43.643Z,996.06
2017-10-16T04:19:50.423Z,996.01
2017-10-16T04:20:57.548Z,995.97
2017-10-16T04:22:04.298Z,995.96
2017-10-16T04:23:11.089Z,996.02
2017-10-16T04:24:17.857Z,996.01
2017-10-16T04:25:24.615Z,996.01
2017-10-16T04:26:31.510Z,996.02
2017-10-16T04:27:38.326Z,996.08
2017-10-16T04:28:45.170Z,996.10
2017-10-16T04:29:51.932Z,996.04
2017-10-16T04:30:58.710Z,996.05
2017-10-16T04:32:05.938Z,996.06
2017-10-16T04:33:12.674Z,996.02
2017-10-16T04:34:19.534Z,995.90
2017-10-16T04:35:26.374Z,995.85
2017-10-16T04:36:33.182Z,995.85
2017-10-16T04:37:39.926Z,995.84
2017-10-16T04:38:46.719Z,995.84
2017-10-16T04:39:53.510Z,995.84
2017-10-16T04:41:00.298Z,995.83
2017-10-16T04:42:07.062Z,995.80
2017-10-16T04:43:13.839Z,995.90
2017-10-16T04:44:20.602Z,995.86
2017-10-16T04:45:27.430Z,995.78
2017-10-16T04:46:34.232Z,995.83
2017-10-16T04:47:41.030Z,995.79
2017-10-16T04:48:47.783Z,995.78
2017-10-16T04:49:54.627Z,995.76
2017-10-16T04:51:01.392Z,995.71
2017-10-16T04:52:08.182Z,995.72
2017-10-16T04:53:14.990Z,995.67
2017-10-16T04:54:21.746Z,995.73
2017-10-16T04:55:28.507Z,995.67
2017-10-16T04:56:35.302Z,995.65
2017-10-16T04:57:42.085Z,995.68
2017-10-16T04:58:48.825Z,995.72
2017-10-16T04:59:55.564Z,995.73
2017-10-16T05:01:02.294Z,995.76
2017-10-16T05:02:09.173Z,995.92
2017-10-16T05:03:15.975Z,995.91
2017-10-16T05:04:23.023Z,996.02
2017-10-16T05:05:29.829Z,995.94
2017-10-16T05:06:36.606Z,995.91
2017-10-16T05:07:43.443Z,995.98
2017-10-16T05:08:50.224Z,996.04
2017-10-16T05:09:57.037Z,996.05
2017-10-16T05:11:03.835Z,996.07
2017-10-16T05:12:10.686Z,995.98
2017-10-16T05:13:17.452Z,996.02
2017-10-16T05:14:24.218Z,996.04
2017-10-16T05:15:31.055Z,996.05
2017-10-16T05:16:37.842Z,995.98
2017-10-16T05:17:44.650Z,996.04
2017-10-16T05:18:51.432Z,995.97
2017-10-16T05:19:58.510Z,995.96
2017-10-16T05:21:05.427Z,995.95
2017-10-16T05:22:12.261Z,996.03
2017-10-16T05:23:19.070Z,996.04
2017-10-16T05:24:25.870Z,995.98
2017-10-16T05:25:32.662Z,996.06
2017-10-16T05:26:39.474Z,996.05
2017-10-16T05:27:46.351Z,996.03
2017-10-16T05:28:53.141Z,996.12
2017-10-16T05:29:59.966Z,996.12
2017-10-16T05:31:06.734Z,996.28
2017-10-16T05:32:13.546Z,996.17
2017-10-16T05:33:20.467Z,996.19
2017-10-16T05:34:27.364Z,996.24
2017-10-16T05:35:34.175Z,996.32
2017-10-16T05:36:40.965Z,996.19
2017-10-16T05:37:47.761Z,996.14
2017-10-16T05:38:54.646Z,996.21
2017-10-16T05:40:01.437Z,996.17
2017-10-16T05:41:08.215Z,996.17
2017-10-16T05:42:15.001Z,996.22
2017-10-16T05:43:21.988Z,996.23
2017-10-16T05:44:28.785Z,996.18
2017-10-16T05:45:35.578Z,996.14
2017-10-16T05:46:42.474Z,996.17
2017-10-16T05:47:49.506Z,996.23
2017-10-16T05:48:56.299Z,996.17
2017-10-16T05:50:03.179Z,996.22
2017-10-16T05:51:10.004Z,996.25
2017-10-16T05:52:16.898Z,996.19
2017-10-16T05:53:23.754Z,996.17
2017-10-16T05:54:30.641Z,996.18
2017-10-16T05:55:37.474Z,996.18
2017-10-16T05:56:44.389Z,996.26
2017-10-16T05:57:51.197Z,996.21
2017-10-16T05:58:57.998Z,996.28
2017-10-16T06:00:04.798Z,996.21
2017-10-16T06:01:11.610Z,996.28
2017-10-16T06:02:18.498Z,996.22
2017-10-16T06:03:25.297Z,996.21
2017-10-16T06:04:32.090Z,996.17
2017-10-16T06:05:38.881Z,996.16
2017-10-16T06:06:45.746Z,996.19
2017-10-16T06:07:52.609Z,996.26
2017-10-16T06:08:59.587Z,996.22
2017-10-16T06:10:06.461Z,996.25
2017-10-16T06:11:13.283Z,996.20
2017-10-16T06:12:20.071Z,996.21
2017-10-16T06:13:26.902Z,996.15
2017-10-16T06:14:33.734Z,996.26
2017-10-16T06:15:40.578Z,996.25
2017-10-16T06:16:47.531Z,996.24
2017-10-16T06:17:54.419Z,996.24
2017-10-16T06:19:01.282Z,996.19
2017-10-16T06:20:08.337Z,996.25
2017-10-16T06:21:15.170Z,996.22
2017-10-16T06:22:21.976Z,996.21
2017-10-16T06:23:28.904Z,996.26
2017-10-16T06:24:35.738Z,996.23
2017-10-16T06:25:42.551Z,996.16
2017-10-16T06:26:49.344Z,996.30
2017-10-16T06:27:56.213Z,996.27
2017-10-16T06:29:03.150Z,996.31
2017-10-16T06:30:09.999Z,996.25
2017-10-16T06:31:16.794Z,996.34
2017-10-16T06:32:23.598Z,996.28
2017-10-16T06:33:30.435Z,996.30
2017-10-16T06:34:37.210Z,996.35
2017-10-16T06:35:43.995Z,996.33
2017-10-16T06:36:50.807Z,996.35
2017-10-16T06:37:57.719Z,996.40
2017-10-16T06:39:04.550Z,996.41
2017-10-16T06:40:11.462Z,996.34
2017-10-16T06:41:18.262Z,996.50
2017-10-16T06:42:25.039Z,996.43
2017-10-16T06:43:31.916Z,996.39
2017-10-16T06:44:38.738Z,996.44
2017-10-16T06:45:45.469Z,996.35
2017-10-16T06:46:52.327Z,996.38
2017-10-16T06:47:59.190Z,996.29
2017-10-16T06:49:06.137Z,996.46
2017-10-16T06:50:12.921Z,996.39
2017-10-16T06:51:19.735Z,996.33
2017-10-16T06:52:26.482Z,996.44
2017-10-16T06:53:33.533Z,996.40
2017-10-16T06:54:40.302Z,996.40
2017-10-16T06:55:47.048Z,996.39
2017-10-16T06:56:53.834Z,996.47
2017-10-16T06:58:00.638Z,996.49
2017-10-16T06:59:07.490Z,996.48
2017-10-16T07:00:14.298Z,996.50
2017-10-16T07:01:21.063Z,996.49
2017-10-16T07:02:27.849Z,996.50
2017-10-16T07:03:34.612Z,996.49
2017-10-16T07:04:41.430Z,996.54
2017-10-16T07:05:48.154Z,996.50
2017-10-16T07:06:54.902Z,996.54
2017-10-16T07:08:01.654Z,996.56
2017-10-16T07:09:08.403Z,996.57
2017-10-16T07:10:15.249Z,996.62
2017-10-16T07:11:21.966Z,996.64
2017-10-16T07:12:28.874Z,996.63
2017-10-16T07:13:35.613Z,996.62
2017-10-16T07:14:42.454Z,996.57
2017-10-16T07:15:49.263Z,996.64
2017-10-16T07:16:56.151Z,996.65
2017-10-16T07:18:02.874Z,996.67
2017-10-16T07:19:09.622Z,996.62
2017-10-16T07:20:16.398Z,996.62
2017-10-16T07:21:23.130Z,996.64
2017-10-16T07:22:29.942Z,996.61
2017-10-16T07:23:36.686Z,996.70
2017-10-16T07:24:43.423Z,996.66
2017-10-16T07:25:50.189Z,996.63
2017-10-16T07:26:57.062Z,996.62
2017-10-16T07:28:03.777Z,996.65
2017-10-16T07:29:10.533Z,996.66
2017-10-16T07:30:17.460Z,996.67
2017-10-16T07:31:24.237Z,996.67
2017-10-16T07:32:31.084Z,996.63
2017-10-16T07:33:37.816Z,996.60
2017-10-16T07:34:44.598Z,996.62
2017-10-16T07:35:51.358Z,996.71
2017-10-16T07:36:58.114Z,996.70
2017-10-16T07:38:04.841Z,996.72
2017-10-16T07:39:11.602Z,996.71
2017-10-16T07:40:18.440Z,996.68
2017-10-16T07:41:25.250Z,996.76
2017-10-16T07:42:32.223Z,996.78
2017-10-16T07:43:38.946Z,996.78
2017-10-16T07:44:45.735Z,996.83
2017-10-16T07:45:52.441Z,996.83
2017-10-16T07:46:59.214Z,996.88
2017-10-16T07:48:06.030Z,996.88
2017-10-16T07:49:12.818Z,996.81
2017-10-16T07:50:19.578Z,996.82
2017-10-16T07:51:26.503Z,996.82
2017-10-16T07:52:33.255Z,996.94
2017-10-16T07:53:40.010Z,996.87
2017-10-16T07:54:46.790Z,996.90
2017-10-16T07:55:53.563Z,996.89
2017-10-16T07:57:00.319Z,996.92
2017-10-16T07:58:07.125Z,996.87
2017-10-16T07:59:13.890Z,996.92
2017-10-16T08:00:20.654Z,996.88
2017-10-16T08:01:27.438Z,996.92
2017-10-16T08:02:34.219Z,996.94
2017-10-16T08:03:46.093Z,996.83
2017-10-16T08:04:47.914Z,996.85
2017-10-16T08:05:54.718Z,996.80
2017-10-16T08:07:01.453Z,996.81
2017-10-16T08:08:08.226Z,996.79
2017-10-16T08:09:14.963Z,996.79
2017-10-16T08:10:21.713Z,996.81
2017-10-16T08:11:28.461Z,996.74
2017-10-16T08:12:35.204Z,996.75
2017-10-16T08:13:42.005Z,996.75
2017-10-16T08:14:48.740Z,996.75
2017-10-16T08:15:55.884Z,996.74
2017-10-16T08:17:02.659Z,996.73
2017-10-16T08:18:09.475Z,996.82
2017-10-16T08:19:16.210Z,996.79
2017-10-16T08:20:22.971Z,996.77
2017-10-16T08:21:29.762Z,996.76
2017-10-16T08:22:36.506Z,996.73
2017-10-16T08:23:43.346Z,996.74
2017-10-16T08:24:50.164Z,996.78
2017-10-16T08:25:57.088Z,996.74
2017-10-16T08:27:03.977Z,996.67
2017-10-16T08:28:10.837Z,996.74
2017-10-16T08:29:17.658Z,996.70
2017-10-16T08:30:24.477Z,996.68
2017-10-16T08:31:31.278Z,996.73
2017-10-16T08:32:38.033Z,996.67
2017-10-16T08:33:44.910Z,996.73
2017-10-16T08:34:51.705Z,996.72
2017-10-16T08:35:58.470Z,996.71
2017-10-16T08:37:05.362Z,996.70
2017-10-16T08:38:12.470Z,996.69
2017-10-16T08:39:19.260Z,996.69
2017-10-16T08:40:26.130Z,996.73
2017-10-16T08:41:32.998Z,996.74
2017-10-16T08:42:40.173Z,996.71
2017-10-16T08:43:47.001Z,996.66
2017-10-16T08:44:53.822Z,996.67
2017-10-16T08:46:00.665Z,996.74
2017-10-16T08:47:07.515Z,996.66
2017-10-16T08:48:14.406Z,996.70
2017-10-16T08:49:26.702Z,996.74
2017-10-16T08:50:28.116Z,996.77
2017-10-16T08:51:34.938Z,996.75
2017-10-16T08:52:41.874Z,996.76
2017-10-16T08:53:48.774Z,996.87
2017-10-16T08:54:55.561Z,996.75
2017-10-16T08:56:02.381Z,996.77
2017-10-16T08:57:09.317Z,996.78
2017-10-16T08:58:16.175Z,996.69
2017-10-16T08:59:23.154Z,996.69
2017-10-16T09:00:29.986Z,996.69
2017-10-16T09:01:36.915Z,996.68
2017-10-16T09:02:43.887Z,996.74
2017-10-16T09:03:50.730Z,996.67
2017-10-16T09:04:57.606Z,996.67
2017-10-16T09:06:04.409Z,996.69
2017-10-16T09:07:11.354Z,996.72
2017-10-16T09:08:18.219Z,996.82
2017-10-16T09:09:25.054Z,996.80
2017-10-16T09:10:31.793Z,996.81
2017-10-16T09:11:38.722Z,996.78
2017-10-16T09:12:45.607Z,996.79
2017-10-16T09:13:52.543Z,996.80
2017-10-16T09:14:59.401Z,996.71
2017-10-16T09:16:06.256Z,996.74
2017-10-16T09:17:13.069Z,996.66
2017-10-16T09:18:20.001Z,996.63
2017-10-16T09:19:26.797Z,996.65
2017-10-16T09:20:33.710Z,996.72
2017-10-16T09:21:40.543Z,996.63
2017-10-16T09:22:47.474Z,996.64
2017-10-16T09:23:54.405Z,996.60
2017-10-16T09:25:01.258Z,996.71
2017-10-16T09:26:08.220Z,996.71
2017-10-16T09:27:15.078Z,996.70
2017-10-16T09:28:21.909Z,996.66
2017-10-16T09:29:28.718Z,996.64
2017-10-16T09:30:35.507Z,996.72
2017-10-16T09:31:42.355Z,996.76
2017-10-16T09:32:49.217Z,996.72
2017-10-16T09:33:55.970Z,996.62
2017-10-16T09:35:02.737Z,996.65
2017-10-16T09:36:09.595Z,996.58
2017-10-16T09:37:16.437Z,996.60
2017-10-16T09:38:23.590Z,996.51
2017-10-16T09:39:30.841Z,996.49
2017-10-16T09:40:37.257Z,996.51
2017-10-16T09:41:44.081Z,996.42
2017-10-16T09:42:50.949Z,996.51
2017-10-16T09:43:57.815Z,996.41
2017-10-16T09:45:04.662Z,996.45
2017-10-16T09:46:11.618Z,996.41
2017-10-16T09:47:18.509Z,996.38
2017-10-16T09:48:25.362Z,996.45
2017-10-16T09:49:32.207Z,996.43
2017-10-16T09:50:39.006Z,996.41
2017-10-16T09:51:45.769Z,996.38
2017-10-16T09:52:52.550Z,996.39
2017-10-16T09:53:59.322Z,996.39
2017-10-16T09:55:06.110Z,996.37
2017-10-16T09:56:12.906Z,996.41
2017-10-16T09:57:19.713Z,996.38
2017-10-16T09:58:26.538Z,996.36
2017-10-16T09:59:33.427Z,996.37
2017-10-16T10:00:40.278Z,996.40
2017-10-16T10:01:47.113Z,996.45
2017-10-16T10:02:54.110Z,996.45
2017-10-16T10:04:00.845Z,996.46
2017-10-16T10:05:07.742Z,996.53
2017-10-16T10:06:14.660Z,996.49
2017-10-16T10:07:21.495Z,996.59
2017-10-16T10:08:28.362Z,996.47
2017-10-16T10:09:35.336Z,996.51
2017-10-16T10:10:42.200Z,996.61
2017-10-16T10:11:49.019Z,996.51
2017-10-16T10:12:55.861Z,996.46
2017-10-16T10:14:03.017Z,996.48
2017-10-16T10:15:09.798Z,996.45
2017-10-16T10:16:16.750Z,996.45
2017-10-16T10:17:23.629Z,996.45
2017-10-16T10:18:30.370Z,996.41
2017-10-16T10:19:37.201Z,996.38
2017-10-16T10:20:43.960Z,996.46
2017-10-16T10:21:50.691Z,996.40
2017-10-16T10:22:57.453Z,996.41
2017-10-16T10:24:04.247Z,996.43
2017-10-16T10:25:10.965Z,996.43
2017-10-16T10:26:17.758Z,996.39
2017-10-16T10:27:24.483Z,996.38
2017-10-16T10:28:31.205Z,996.42
2017-10-16T10:29:37.933Z,996.42
2017-10-16T10:30:44.637Z,996.40
2017-10-16T10:31:51.339Z,996.37
2017-10-16T10:32:58.133Z,996.36
2017-10-16T10:34:04.898Z,996.35
2017-10-16T10:35:11.630Z,996.35
2017-10-16T10:36:18.593Z,996.31
2017-10-16T10:37:25.310Z,996.36
2017-10-16T10:38:32.314Z,996.38
2017-10-16T10:39:39.070Z,996.32
2017-10-16T10:40:45.804Z,996.33
2017-10-16T10:41:52.571Z,996.30
2017-10-16T10:42:59.313Z,996.35
2017-10-16T10:44:06.068Z,996.41
2017-10-16T10:45:12.838Z,996.30
2017-10-16T10:46:19.581Z,996.31
2017-10-16T10:47:26.338Z,996.26
2017-10-16T10:48:33.257Z,996.21
2017-10-16T10:49:40.055Z,996.27
2017-10-16T10:50:46.838Z,996.20
2017-10-16T10:51:53.597Z,996.30
2017-10-16T10:53:00.336Z,996.15
2017-10-16T10:54:07.142Z,996.15
2017-10-16T10:55:13.941Z,996.20
2017-10-16T10:56:20.782Z,996.17
2017-10-16T10:57:27.548Z,996.19
2017-10-16T10:58:34.629Z,996.18
2017-10-16T10:59:41.497Z,996.19
2017-10-16T11:00:48.289Z,996.20
2017-10-16T11:01:55.134Z,996.16
2017-10-16T11:03:01.958Z,996.18
2017-10-16T11:04:08.770Z,996.18
2017-10-16T11:05:15.629Z,996.16
2017-10-16T11:06:22.710Z,996.03
2017-10-16T11:07:29.454Z,996.04
2017-10-16T11:08:36.241Z,996.11
2017-10-16T11:09:43.061Z,996.11
2017-10-16T11:10:49.828Z,996.05
2017-10-16T11:11:56.670Z,996.05
2017-10-16T11:13:03.426Z,996.02
2017-10-16T11:14:10.185Z,996.05
2017-10-16T11:15:16.994Z,995.98
2017-10-16T11:16:23.866Z,995.97
2017-10-16T11:17:30.673Z,996.05
2017-10-16T11:18:37.474Z,996.05
2017-10-16T11:19:44.343Z,996.07
2017-10-16T11:20:51.192Z,996.12
2017-10-16T11:21:58.041Z,995.99
2017-10-16T11:23:04.865Z,995.99
2017-10-16T11:24:11.825Z,995.99
2017-10-16T11:25:18.593Z,995.99
2017-10-16T11:26:25.432Z,996.05
2017-10-16T11:27:32.211Z,995.96
2017-10-16T11:28:39.022Z,995.95
2017-10-16T11:29:45.796Z,995.96
2017-10-16T11:30:52.626Z,995.97
2017-10-16T11:31:59.395Z,995.94
2017-10-16T11:33:06.222Z,996.00
2017-10-16T11:34:12.953Z,995.95
2017-10-16T11:35:20.025Z,995.92
2017-10-16T11:36:26.868Z,995.88
2017-10-16T11:37:33.650Z,995.96
2017-10-16T11:38:40.500Z,995.91
2017-10-16T11:39:47.303Z,995.85
2017-10-16T11:40:54.072Z,995.80
2017-10-16T11:42:01.008Z,995.73
2017-10-16T11:43:07.905Z,995.78
2017-10-16T11:44:14.767Z,995.72
2017-10-16T11:45:21.617Z,995.62
2017-10-16T11:46:28.462Z,995.71
2017-10-16T11:47:35.281Z,995.66
2017-10-16T11:48:42.111Z,995.76
2017-10-16T11:49:48.975Z,995.76
2017-10-16T11:50:55.813Z,995.70
2017-10-16T11:52:02.682Z,995.68
2017-10-16T11:53:09.501Z,995.68
2017-10-16T11:54:16.257Z,995.69
2017-10-16T11:55:23.061Z,995.65
2017-10-16T11:56:30.044Z,995.76
2017-10-16T11:57:36.936Z,995.68
2017-10-16T11:58:43.785Z,995.65
2017-10-16T11:59:50.646Z,995.62
2017-10-16T12:00:57.474Z,995.60
2017-10-16T12:02:04.421Z,995.58
2017-10-16T12:03:11.297Z,995.59
2017-10-16T12:04:18.238Z,995.49
2017-10-16T12:05:25.162Z,995.48
2017-10-16T12:06:31.993Z,995.49
2017-10-16T12:07:38.871Z,995.44
2017-10-16T12:08:45.787Z,995.45
2017-10-16T12:09:52.646Z,995.52
2017-10-16T12:10:59.580Z,995.39
2017-10-16T12:12:06.466Z,995.46
2017-10-16T12:13:13.277Z,995.36
2017-10-16T12:14:20.161Z,995.39
2017-10-16T12:15:27.037Z,995.41
2017-10-16T12:16:33.873Z,995.44
2017-10-16T12:17:40.746Z,995.38
2017-10-16T12:18:47.655Z,995.35
2017-10-16T12:19:54.450Z,995.30
2017-10-16T12:21:01.281Z,995.30
2017-10-16T12:22:08.180Z,995.39
2017-10-16T12:23:14.998Z,995.38
2017-10-16T12:24:21.898Z,995.34
2017-10-16T12:25:28.729Z,995.35
2017-10-16T12:26:35.601Z,995.26
2017-10-16T12:27:42.721Z,995.24
2017-10-16T12:28:49.554Z,995.28
2017-10-16T12:29:56.414Z,995.25
2017-10-16T12:31:03.210Z,995.23
2017-10-16T12:32:10.054Z,995.26
2017-10-16T12:33:16.878Z,995.26
2017-10-16T12:34:23.737Z,995.28
2017-10-16T12:35:30.641Z,995.19
2017-10-16T12:36:37.467Z,995.14
2017-10-16T12:37:44.339Z,995.13
2017-10-16T12:38:51.197Z,995.12
2017-10-16T12:39:58.026Z,995.06
2017-10-16T12:41:04.898Z,995.06
2017-10-16T12:42:11.741Z,995.06
2017-10-16T12:43:18.622Z,995.01
2017-10-16T12:44:25.471Z,995.05
2017-10-16T12:45:32.422Z,995.06
2017-10-16T12:46:39.241Z,995.04
2017-10-16T12:47:46.127Z,995.10
2017-10-16T12:48:53.007Z,995.08
2017-10-16T12:49:59.901Z,995.02
2017-10-16T12:51:06.754Z,995.01
2017-10-16T12:52:13.614Z,995.03
2017-10-16T12:53:20.470Z,994.98
2017-10-16T12:54:27.314Z,994.96
2017-10-16T12:55:34.145Z,994.90
2017-10-16T12:56:41.033Z,994.80
2017-10-16T12:57:47.913Z,994.84
2017-10-16T12:58:54.767Z,994.82
2017-10-16T13:00:01.658Z,994.77
2017-10-16T13:01:08.462Z,994.80
2017-10-16T13:02:15.238Z,994.86
2017-10-16T13:03:22.225Z,994.83
2017-10-16T13:04:29.051Z,994.79
2017-10-16T13:05:35.877Z,994.84
2017-10-16T13:06:42.767Z,994.82
2017-10-16T13:07:49.574Z,994.82
2017-10-16T13:08:56.402Z,994.78
2017-10-16T13:10:03.370Z,994.82
2017-10-16T13:11:10.549Z,994.80
2017-10-16T13:12:17.077Z,994.78
2017-10-16T13:13:23.962Z,994.78
2017-10-16T13:14:30.807Z,994.75
2017-10-16T13:15:37.670Z,994.83
2017-10-16T13:16:44.545Z,994.74
2017-10-16T13:17:51.554Z,994.76
2017-10-16T13:18:58.454Z,994.77
2017-10-16T13:20:05.359Z,994.81
2017-10-16T13:21:12.207Z,994.77
2017-10-16T13:22:19.499Z,994.79
2017-10-16T13:23:26.290Z,994.76
2017-10-16T13:24:33.121Z,994.76
2017-10-16T13:25:39.985Z,994.78
2017-10-16T13:26:46.834Z,994.69
2017-10-16T13:27:53.737Z,994.78
2017-10-16T13:29:00.637Z,994.76
2017-10-16T13:30:07.442Z,994.78
2017-10-16T13:31:14.346Z,994.79
2017-10-16T13:32:21.205Z,994.71
2017-10-16T13:33:28.045Z,994.75
2017-10-16T13:34:34.929Z,994.75
2017-10-16T13:35:41.777Z,994.76
2017-10-16T13:36:48.695Z,994.84
2017-10-16T13:37:55.587Z,994.81
2017-10-16T13:39:02.471Z,994.79
2017-10-16T13:40:09.594Z,994.81
2017-10-16T13:41:16.446Z,994.81
2017-10-16T13:42:23.361Z,994.86
2017-10-16T13:43:30.273Z,994.86
2017-10-16T13:44:37.167Z,994.88
2017-10-16T13:45:44.149Z,994.83
2017-10-16T13:46:51.114Z,994.86
2017-10-16T13:47:57.961Z,994.86
2017-10-16T13:49:04.910Z,994.84
2017-10-16T13:50:11.877Z,994.83
2017-10-16T13:51:18.754Z,994.84
2017-10-16T13:52:25.622Z,994.83
2017-10-16T13:53:32.522Z,994.84